Time;durP1;ratioP1;P1;durP2;ratioP2;P2;SDS_P1;SDS_P2;PMS_P1;PMS_P2;Temp;Humidity;BMP_temperature;BMP_pressure;BME280_temperature;BME280_humidity;BME280_pressure;Samples;Min_cycle;Max_cycle;Signal;HPM_P1;HPM_P2
2023/10/05 00:01:34;;;;;;;15.00;3.03;;;;;;;;;;5089736;28;20204;-73
2023/10/05 00:04:01;;;;;;;12.30;3.38;;;;;;;;;;5090543;28;20227;-72
2023/10/05 00:06:27;;;;;;;13.95;3.00;;;;;;;;;;5104257;28;20188;-71
2023/10/05 00:08:54;;;;;;;10.68;3.60;;;;;;;;;;5072479;28;20212;-69
2023/10/05 00:11:30;;;;;;;10.00;3.15;;;;;;;;;;5090978;28;20565;-72
2023/10/05 00:13:58;;;;;;;12.57;2.75;;;;;;;;;;5084325;28;20192;-73
2023/10/05 00:16:36;;;;;;;10.02;3.03;;;;;;;;;;5076542;28;20541;-71
2023/10/05 00:19:04;;;;;;;8.13;2.90;;;;;;;;;;5099641;28;20199;-72
2023/10/05 00:21:35;;;;;;;9.27;2.90;;;;;;;;;;5096958;28;20219;-74
2023/10/05 00:24:02;;;;;;;11.18;3.30;;;;;;;;;;5096216;28;20206;-73
2023/10/05 00:26:29;;;;;;;9.98;2.97;;;;;;;;;;5092012;28;20188;-73
2023/10/05 00:29:04;;;;;;;10.48;3.10;;;;;;;;;;5103643;28;20572;-73
2023/10/05 00:31:30;;;;;;;8.00;2.72;;;;;;;;;;5084290;28;20277;-72
2023/10/05 00:33:56;;;;;;;10.43;2.92;;;;;;;;;;5089806;28;20188;-73
2023/10/05 00:36:25;;;;;;;11.82;2.95;;;;;;;;;;5084283;28;20267;-73
2023/10/05 00:38:51;;;;;;;9.38;2.80;;;;;;;;;;5096368;28;20189;-71
2023/10/05 00:41:17;;;;;;;8.55;2.50;;;;;;;;;;5092243;28;20187;-71
2023/10/05 00:43:46;;;;;;;11.10;3.22;;;;;;;;;;5095846;28;20246;-72
2023/10/05 00:46:12;;;;;;;11.15;2.65;;;;;;;;;;5100721;28;20183;-71
2023/10/05 00:48:54;;;;;;;13.95;2.72;;;;;;;;;;5094944;28;20274;-70
2023/10/05 00:51:25;;;;;;;14.70;3.08;;;;;;;;;;5097449;28;20184;-71
2023/10/05 00:53:53;;;;;;;8.55;2.30;;;;;;;;;;5087383;28;20619;-72
2023/10/05 00:56:22;;;;;;;11.38;2.40;;;;;;;;;;5096779;28;20248;-71
2023/10/05 00:58:50;;;;;;;8.27;2.88;;;;;;;;;;5088129;28;20172;-73
2023/10/05 01:01:16;;;;;;;8.13;2.15;;;;;;;;;;5070781;28;20212;-73
2023/10/05 01:06:37;;;;;;;8.73;1.90;;;;;;;;;;5090810;28;20268;-72
2023/10/05 01:09:05;;;;;;;10.27;2.58;;;;;;;;;;5075581;28;20635;-73
2023/10/05 01:11:42;;;;;;;11.50;2.17;;;;;;;;;;5086086;28;20187;-73
2023/10/05 01:14:08;;;;;;;10.75;2.25;;;;;;;;;;5068774;28;20196;-74
2023/10/05 01:16:34;;;;;;;6.32;2.20;;;;;;;;;;5071778;28;20585;-70
2023/10/05 01:19:02;;;;;;;10.00;2.67;;;;;;;;;;5066396;28;20203;-71
2023/10/05 01:21:28;;;;;;;11.07;2.70;;;;;;;;;;5093800;28;20183;-72
2023/10/05 01:23:53;;;;;;;5.97;2.20;;;;;;;;;;5092910;28;20487;-72
2023/10/05 01:26:20;;;;;;;10.20;2.58;;;;;;;;;;5094823;28;20192;-74
2023/10/05 01:28:45;;;;;;;10.07;2.05;;;;;;;;;;5092591;28;20208;-72
2023/10/05 01:31:17;;;;;;;13.65;2.53;;;;;;;;;;5090397;28;20270;-73
2023/10/05 01:33:43;;;;;;;10.90;2.22;;;;;;;;;;5093310;28;20198;-72
2023/10/05 01:36:11;;;;;;;9.98;2.55;;;;;;;;;;5093396;28;20215;-74
2023/10/05 01:38:38;;;;;;;11.07;2.17;;;;;;;;;;5091815;28;20188;-72
2023/10/05 01:41:07;;;;;;;14.15;2.58;;;;;;;;;;5082759;28;20205;-73
2023/10/05 01:43:36;;;;;;;14.18;2.65;;;;;;;;;;5099850;28;20191;-70
2023/10/05 01:46:04;;;;;;;9.23;2.22;;;;;;;;;;5093331;28;20375;-70
2023/10/05 01:48:30;;;;;;;5.47;2.33;;;;;;;;;;5095912;28;20219;-72
2023/10/05 01:51:07;;;;;;;10.60;2.60;;;;;;;;;;5094391;28;20241;-74
2023/10/05 01:53:33;;;;;;;15.35;2.83;;;;;;;;;;5091263;28;20196;-70
2023/10/05 01:55:59;;;;;;;9.80;2.38;;;;;;;;;;5093156;28;20618;-73
2023/10/05 01:58:27;;;;;;;12.77;2.95;;;;;;;;;;5072950;28;20271;-71
2023/10/05 02:00:54;;;;;;;8.55;2.42;;;;;;;;;;5073975;28;20211;-71
2023/10/05 02:03:23;;;;;;;8.13;2.50;;;;;;;;;;5092601;28;20219;-73
2023/10/05 02:05:50;;;;;;;13.25;2.65;;;;;;;;;;5088285;28;20200;-69
2023/10/05 02:08:15;;;;;;;12.98;2.55;;;;;;;;;;5092739;28;20574;-70
2023/10/05 02:10:45;;;;;;;11.25;2.75;;;;;;;;;;5091998;28;20220;-70
2023/10/05 02:13:12;;;;;;;11.13;3.10;;;;;;;;;;5072644;28;20243;-73
2023/10/05 02:15:41;;;;;;;14.30;2.72;;;;;;;;;;5084953;28;20191;-72
2023/10/05 02:18:18;;;;;;;11.05;2.45;;;;;;;;;;5091671;28;20199;-72
2023/10/05 02:20:46;;;;;;;7.88;2.20;;;;;;;;;;5092061;28;20191;-72
2023/10/05 02:23:29;;;;;;;11.32;2.97;;;;;;;;;;5090067;28;20248;-71
2023/10/05 02:26:10;;;;;;;13.07;3.03;;;;;;;;;;5095388;28;20669;-70
2023/10/05 02:28:39;;;;;;;13.20;2.83;;;;;;;;;;5086385;28;20208;-72
2023/10/05 02:31:09;;;;;;;8.18;2.42;;;;;;;;;;5073353;28;20176;-71
2023/10/05 02:33:37;;;;;;;8.00;2.60;;;;;;;;;;5091368;28;20237;-73
2023/10/05 02:36:11;;;;;;;9.00;2.38;;;;;;;;;;5091829;28;20239;-72
2023/10/05 02:38:48;;;;;;;12.05;2.33;;;;;;;;;;5108539;28;20626;-73
2023/10/05 02:41:16;;;;;;;8.25;2.08;;;;;;;;;;5056718;28;20612;-73
2023/10/05 02:43:51;;;;;;;10.30;2.45;;;;;;;;;;5069828;28;20592;-72
2023/10/05 02:46:17;;;;;;;6.60;2.05;;;;;;;;;;5047808;28;20183;-73
2023/10/05 02:48:43;;;;;;;14.02;2.75;;;;;;;;;;5071929;28;20220;-73
2023/10/05 02:51:11;;;;;;;9.10;2.45;;;;;;;;;;5091788;28;20242;-73
2023/10/05 02:53:46;;;;;;;11.73;2.97;;;;;;;;;;5073284;28;20218;-72
2023/10/05 02:56:27;;;;;;;9.95;2.65;;;;;;;;;;5087907;28;20219;-69
2023/10/05 02:59:07;;;;;;;12.45;2.60;;;;;;;;;;5090592;28;20183;-72
2023/10/05 03:01:40;;;;;;;10.40;3.10;;;;;;;;;;5087819;28;20813;-72
2023/10/05 03:04:15;;;;;;;16.02;3.65;;;;;;;;;;5084733;28;20240;-71
2023/10/05 03:06:42;;;;;;;15.77;3.25;;;;;;;;;;5081923;28;20227;-72
2023/10/05 03:09:08;;;;;;;12.65;3.28;;;;;;;;;;5091435;28;20666;-68
2023/10/05 03:11:42;;;;;;;10.10;3.03;;;;;;;;;;5090710;28;20544;-72
2023/10/05 03:14:11;;;;;;;13.73;4.00;;;;;;;;;;5071207;28;20273;-71
2023/10/05 03:17:03;;;;;;;9.52;3.15;;;;;;;;;;5072880;28;20565;-71
2023/10/05 03:19:23;;;;;;;14.25;3.33;;;;;;;;;;5090477;28;20663;-72
2023/10/05 03:21:50;;;;;;;16.08;3.05;;;;;;;;;;5091625;28;20203;-73
2023/10/05 03:24:19;;;;;;;12.38;3.00;;;;;;;;;;5088556;28;20188;-73
2023/10/05 03:26:47;;;;;;;14.73;3.85;;;;;;;;;;5091886;28;20571;-73
2023/10/05 03:29:12;;;;;;;13.02;3.65;;;;;;;;;;5095427;28;20227;-73
2023/10/05 03:31:53;;;;;;;13.60;4.28;;;;;;;;;;5066550;28;20188;-72
2023/10/05 03:34:26;;;;;;;15.48;3.78;;;;;;;;;;5069552;28;20192;-73
2023/10/05 03:36:55;;;;;;;9.95;3.40;;;;;;;;;;5091323;28;20669;-74
2023/10/05 03:39:23;;;;;;;15.13;3.85;;;;;;;;;;5066189;28;20249;-73
2023/10/05 03:41:49;;;;;;;10.45;4.00;;;;;;;;;;5089845;28;20196;-73
2023/10/05 03:44:18;;;;;;;20.63;4.28;;;;;;;;;;5074022;28;20192;-72
2023/10/05 03:46:46;;;;;;;17.55;4.18;;;;;;;;;;5054587;28;20184;-73
2023/10/05 03:49:17;;;;;;;11.70;3.63;;;;;;;;;;5077614;28;20215;-72
2023/10/05 03:51:49;;;;;;;10.70;3.78;;;;;;;;;;5082055;28;20511;-73
2023/10/05 03:54:18;;;;;;;14.32;3.95;;;;;;;;;;5055237;28;20621;-73
2023/10/05 03:56:56;;;;;;;12.93;3.40;;;;;;;;;;5064719;28;20562;-72
2023/10/05 03:59:21;;;;;;;13.70;3.55;;;;;;;;;;5087527;28;20196;-73
2023/10/05 04:01:48;;;;;;;15.15;3.75;;;;;;;;;;5089062;28;20272;-73
2023/10/05 04:04:15;;;;;;;12.82;3.30;;;;;;;;;;5070887;28;20755;-72
2023/10/05 04:06:42;;;;;;;10.32;3.50;;;;;;;;;;5061564;28;20214;-72
2023/10/05 04:09:15;;;;;;;17.52;4.13;;;;;;;;;;5069137;28;20577;-70
2023/10/05 04:11:42;;;;;;;13.13;4.03;;;;;;;;;;5065003;28;20221;-72
2023/10/05 04:14:08;;;;;;;11.23;4.22;;;;;;;;;;5075708;28;20186;-71
2023/10/05 04:16:34;;;;;;;12.85;3.67;;;;;;;;;;5081329;28;20263;-72
2023/10/05 04:19:04;;;;;;;12.10;3.30;;;;;;;;;;5085027;28;20192;-72
2023/10/05 04:21:29;;;;;;;18.52;4.57;;;;;;;;;;5079064;28;20632;-73
2023/10/05 04:23:58;;;;;;;13.23;3.50;;;;;;;;;;5074182;28;20192;-71
2023/10/05 04:26:32;;;;;;;12.05;3.40;;;;;;;;;;5095703;28;20539;-73
2023/10/05 04:28:58;;;;;;;17.25;3.85;;;;;;;;;;5082231;28;20213;-73
2023/10/05 04:31:25;;;;;;;12.30;3.63;;;;;;;;;;5078434;28;20293;-73
2023/10/05 04:33:52;;;;;;;16.20;3.70;;;;;;;;;;5080801;28;20268;-73
2023/10/05 04:36:19;;;;;;;13.85;4.30;;;;;;;;;;5087932;28;20184;-73
2023/10/05 04:38:45;;;;;;;15.40;4.07;;;;;;;;;;5070629;28;20223;-74
2023/10/05 04:41:12;;;;;;;14.10;3.50;;;;;;;;;;5092050;28;20215;-73
2023/10/05 04:43:39;;;;;;;16.40;3.83;;;;;;;;;;5073182;28;20237;-72
2023/10/05 04:46:09;;;;;;;10.00;3.70;;;;;;;;;;5089325;28;20320;-73
2023/10/05 04:48:35;;;;;;;16.60;4.00;;;;;;;;;;5086924;28;20485;-73
2023/10/05 04:51:05;;;;;;;13.70;3.50;;;;;;;;;;5089356;28;20192;-73
2023/10/05 04:53:32;;;;;;;18.27;3.78;;;;;;;;;;5072524;28;20601;-71
2023/10/05 04:56:10;;;;;;;12.45;3.90;;;;;;;;;;5083638;28;20184;-71
2023/10/05 04:58:53;;;;;;;16.42;4.15;;;;;;;;;;5090797;28;20259;-72
2023/10/05 05:01:28;;;;;;;15.15;3.70;;;;;;;;;;5097343;28;20306;-71
2023/10/05 05:03:56;;;;;;;11.38;3.65;;;;;;;;;;5090270;28;20232;-71
2023/10/05 05:06:32;;;;;;;13.70;4.57;;;;;;;;;;5088627;28;20560;-72
2023/10/05 05:08:58;;;;;;;10.10;3.65;;;;;;;;;;5084323;28;20777;-71
2023/10/05 05:11:25;;;;;;;15.20;4.65;;;;;;;;;;5083233;28;20297;-72
2023/10/05 05:13:51;;;;;;;12.07;4.45;;;;;;;;;;5079766;28;20192;-73
2023/10/05 05:16:16;;;;;;;12.88;4.53;;;;;;;;;;5088815;28;20183;-72
2023/10/05 05:18:42;;;;;;;13.57;4.35;;;;;;;;;;5089050;28;20255;-73
2023/10/05 05:21:08;;;;;;;13.25;4.28;;;;;;;;;;5091516;28;20267;-71
2023/10/05 05:23:35;;;;;;;13.82;4.93;;;;;;;;;;5084508;28;20627;-72
2023/10/05 05:26:00;;;;;;;17.83;4.57;;;;;;;;;;5089787;28;20204;-73
2023/10/05 05:28:26;;;;;;;11.60;5.20;;;;;;;;;;5104233;28;20690;-72
2023/10/05 05:30:53;;;;;;;16.95;4.95;;;;;;;;;;5095086;28;20195;-72
2023/10/05 05:33:18;;;;;;;14.32;4.93;;;;;;;;;;5083663;28;20188;-71
2023/10/05 05:35:45;;;;;;;14.52;5.00;;;;;;;;;;5060172;28;20219;-72
2023/10/05 05:38:10;;;;;;;15.07;4.88;;;;;;;;;;5066391;28;20188;-73
2023/10/05 05:40:37;;;;;;;12.88;4.75;;;;;;;;;;5076603;28;20207;-73
2023/10/05 05:43:11;;;;;;;14.93;5.32;;;;;;;;;;5089513;28;20608;-72
2023/10/05 05:45:39;;;;;;;15.93;5.82;;;;;;;;;;5086655;28;20243;-72
2023/10/05 05:48:09;;;;;;;18.25;5.70;;;;;;;;;;5083946;28;20227;-72
2023/10/05 05:50:39;;;;;;;18.08;5.28;;;;;;;;;;5092524;28;20313;-72
2023/10/05 05:53:11;;;;;;;13.63;5.43;;;;;;;;;;5082415;28;20200;-72
2023/10/05 05:55:43;;;;;;;19.23;6.63;;;;;;;;;;5078237;28;20196;-71
2023/10/05 05:58:14;;;;;;;14.73;6.22;;;;;;;;;;5057754;28;20210;-72
2023/10/05 06:00:39;;;;;;;17.92;5.85;;;;;;;;;;5071080;28;20328;-72
2023/10/05 06:03:10;;;;;;;18.38;6.80;;;;;;;;;;5093401;28;20224;-73
2023/10/05 06:05:35;;;;;;;18.25;6.95;;;;;;;;;;5094048;28;20176;-73
2023/10/05 06:08:02;;;;;;;18.80;6.20;;;;;;;;;;5095474;28;20219;-72
2023/10/05 06:10:34;;;;;;;14.40;5.72;;;;;;;;;;5088349;28;20222;-71
2023/10/05 06:13:01;;;;;;;19.15;6.43;;;;;;;;;;5081218;28;20191;-73
2023/10/05 06:15:28;;;;;;;13.98;6.05;;;;;;;;;;5067908;28;20195;-72
2023/10/05 06:17:53;;;;;;;21.02;7.55;;;;;;;;;;5088808;28;20223;-72
2023/10/05 06:20:19;;;;;;;19.75;6.50;;;;;;;;;;5078526;28;20722;-67
2023/10/05 06:22:46;;;;;;;14.40;6.28;;;;;;;;;;5082366;28;20217;-73
2023/10/05 06:25:12;;;;;;;19.67;6.88;;;;;;;;;;5086418;28;20181;-74
2023/10/05 06:27:38;;;;;;;16.88;5.45;;;;;;;;;;5092335;28;20654;-74
2023/10/05 06:30:08;;;;;;;15.63;6.28;;;;;;;;;;5093942;28;20192;-73
2023/10/05 06:32:34;;;;;;;15.75;6.22;;;;;;;;;;5088678;28;20226;-73
2023/10/05 06:34:59;;;;;;;12.73;6.10;;;;;;;;;;5092238;28;20211;-73
2023/10/05 06:37:25;;;;;;;15.98;5.70;;;;;;;;;;5095366;28;20193;-73
2023/10/05 06:39:53;;;;;;;15.80;5.97;;;;;;;;;;5085185;28;20192;-72
2023/10/05 06:42:19;;;;;;;18.13;6.38;;;;;;;;;;5088152;28;20207;-73
2023/10/05 06:44:45;;;;;;;20.65;6.25;;;;;;;;;;5072102;28;20216;-73
2023/10/05 06:47:18;;;;;;;16.23;5.93;;;;;;;;;;5067590;28;20227;-70
2023/10/05 06:49:44;;;;;;;16.98;5.65;;;;;;;;;;5089462;28;20188;-73
2023/10/05 06:52:09;;;;;;;20.88;6.47;;;;;;;;;;5077976;28;20626;-70
2023/10/05 06:54:35;;;;;;;13.73;5.18;;;;;;;;;;5076923;28;20211;-71
2023/10/05 06:57:00;;;;;;;13.85;5.93;;;;;;;;;;5087430;28;20196;-73
2023/10/05 06:59:26;;;;;;;12.77;5.35;;;;;;;;;;5100509;28;20192;-68
2023/10/05 07:01:52;;;;;;;17.92;6.05;;;;;;;;;;5087730;28;20208;-69
2023/10/05 07:04:24;;;;;;;13.07;5.88;;;;;;;;;;5087185;28;20600;-72
2023/10/05 07:06:50;;;;;;;14.73;5.80;;;;;;;;;;5073424;28;20191;-73
2023/10/05 07:09:16;;;;;;;15.70;5.82;;;;;;;;;;5084368;28;20212;-73
2023/10/05 07:11:41;;;;;;;14.15;5.68;;;;;;;;;;5091476;28;20237;-72
2023/10/05 07:14:09;;;;;;;20.38;6.15;;;;;;;;;;5085006;28;20325;-69
2023/10/05 07:16:35;;;;;;;15.07;5.50;;;;;;;;;;5085871;28;20195;-72
2023/10/05 07:19:00;;;;;;;16.08;5.47;;;;;;;;;;5090578;28;20654;-71
2023/10/05 07:21:25;;;;;;;16.38;5.85;;;;;;;;;;5080724;28;20198;-71
2023/10/05 07:23:51;;;;;;;16.95;5.40;;;;;;;;;;5077079;28;20214;-71
2023/10/05 07:26:16;;;;;;;13.93;5.60;;;;;;;;;;5097223;28;20641;-72
2023/10/05 07:28:41;;;;;;;10.75;5.00;;;;;;;;;;5104026;28;20207;-72
2023/10/05 07:31:07;;;;;;;13.02;5.53;;;;;;;;;;5084982;28;20216;-71
2023/10/05 07:33:38;;;;;;;16.83;5.30;;;;;;;;;;5094582;28;20191;-69
2023/10/05 07:36:05;;;;;;;17.70;5.03;;;;;;;;;;5080255;28;20477;-71
2023/10/05 07:38:31;;;;;;;15.43;4.93;;;;;;;;;;5075224;28;20643;-72
2023/10/05 07:40:58;;;;;;;17.52;4.95;;;;;;;;;;5071810;28;20624;-72
2023/10/05 07:43:27;;;;;;;15.27;5.10;;;;;;;;;;5074643;28;20192;-74
2023/10/05 07:45:52;;;;;;;14.90;4.28;;;;;;;;;;5078933;28;20686;-75
2023/10/05 07:48:19;;;;;;;13.43;4.70;;;;;;;;;;5079403;28;20248;-71
2023/10/05 07:50:48;;;;;;;9.70;3.95;;;;;;;;;;5090216;28;20215;-73
2023/10/05 07:53:14;;;;;;;14.93;4.97;;;;;;;;;;5095193;28;20651;-73
2023/10/05 07:55:39;;;;;;;18.70;4.93;;;;;;;;;;5071391;28;20560;-73
2023/10/05 07:58:05;;;;;;;15.50;4.20;;;;;;;;;;5081279;28;20291;-73
2023/10/05 08:00:32;;;;;;;12.55;4.80;;;;;;;;;;5066813;28;20193;-74
2023/10/05 08:02:58;;;;;;;16.48;4.68;;;;;;;;;;5080953;28;20281;-74
2023/10/05 08:05:23;;;;;;;14.07;4.80;;;;;;;;;;5075613;28;20268;-74
2023/10/05 08:07:49;;;;;;;15.75;5.22;;;;;;;;;;5090988;28;20208;-73
2023/10/05 08:10:18;;;;;;;14.73;4.63;;;;;;;;;;5083382;28;20598;-74
2023/10/05 08:12:45;;;;;;;16.90;5.10;;;;;;;;;;5060686;28;20185;-74
2023/10/05 08:15:16;;;;;;;17.17;4.85;;;;;;;;;;5060775;28;20189;-73
2023/10/05 08:17:41;;;;;;;13.95;5.03;;;;;;;;;;5078857;28;20184;-74
2023/10/05 08:20:07;;;;;;;16.35;5.18;;;;;;;;;;5072705;28;20184;-74
2023/10/05 08:22:34;;;;;;;15.10;4.10;;;;;;;;;;5059988;28;20672;-73
2023/10/05 08:25:07;;;;;;;9.75;4.15;;;;;;;;;;5091531;28;20302;-73
2023/10/05 08:27:32;;;;;;;16.00;4.60;;;;;;;;;;5099494;28;20207;-75
2023/10/05 08:29:58;;;;;;;18.67;4.65;;;;;;;;;;5074098;28;20522;-75
2023/10/05 08:32:25;;;;;;;14.80;4.95;;;;;;;;;;5080707;28;20187;-72
2023/10/05 08:34:51;;;;;;;10.63;3.95;;;;;;;;;;5097055;28;20190;-73
2023/10/05 08:37:19;;;;;;;12.30;4.10;;;;;;;;;;5079265;28;20660;-74
2023/10/05 08:39:46;;;;;;;9.98;3.97;;;;;;;;;;5083614;28;20286;-73
2023/10/05 08:42:13;;;;;;;14.13;4.20;;;;;;;;;;5087345;28;20192;-68
2023/10/05 08:44:41;;;;;;;12.82;3.85;;;;;;;;;;5089977;28;20647;-72
2023/10/05 08:47:12;;;;;;;11.80;4.43;;;;;;;;;;5087981;28;20180;-72
2023/10/05 08:49:39;;;;;;;13.70;4.10;;;;;;;;;;5089437;28;20184;-74
2023/10/05 08:52:13;;;;;;;12.95;4.03;;;;;;;;;;5086881;28;20188;-72
2023/10/05 08:54:39;;;;;;;11.35;4.18;;;;;;;;;;5081917;28;20222;-74
2023/10/05 08:57:11;;;;;;;10.73;3.85;;;;;;;;;;5071071;28;20685;-74
2023/10/05 08:59:37;;;;;;;10.68;3.92;;;;;;;;;;5082002;28;20241;-75
2023/10/05 09:02:04;;;;;;;15.68;3.95;;;;;;;;;;5089180;28;20615;-74
2023/10/05 09:04:43;;;;;;;14.93;3.95;;;;;;;;;;5076336;28;20302;-73
2023/10/05 09:07:08;;;;;;;13.27;4.00;;;;;;;;;;5090290;28;20295;-75
2023/10/05 09:10:00;;;;;;;11.98;3.78;;;;;;;;;;5071066;28;20341;-75
2023/10/05 09:12:41;;;;;;;12.45;3.72;;;;;;;;;;5061385;28;20666;-74
2023/10/05 09:17:56;;;;;;;11.63;4.38;;;;;;;;;;5083299;28;20181;-74
2023/10/05 09:20:32;;;;;;;13.23;3.83;;;;;;;;;;5051217;28;20189;-71
2023/10/05 09:23:00;;;;;;;13.27;3.75;;;;;;;;;;5057714;28;20274;-74
2023/10/05 09:25:36;;;;;;;14.10;3.30;;;;;;;;;;5099609;28;20187;-74
2023/10/05 09:28:16;;;;;;;12.48;3.33;;;;;;;;;;5098609;28;20246;-74
2023/10/05 09:30:59;;;;;;;13.15;3.35;;;;;;;;;;5093933;28;20179;-74
2023/10/05 09:33:34;;;;;;;11.18;2.97;;;;;;;;;;5110013;28;20638;-74
2023/10/05 09:36:16;;;;;;;13.10;3.42;;;;;;;;;;5086629;28;20200;-74
2023/10/05 09:38:43;;;;;;;14.93;3.63;;;;;;;;;;5093966;28;20180;-74
2023/10/05 09:41:11;;;;;;;10.30;3.00;;;;;;;;;;5055499;28;20196;-74
2023/10/05 09:43:39;;;;;;;17.60;4.20;;;;;;;;;;5090111;28;20280;-73
2023/10/05 09:46:09;;;;;;;12.35;3.20;;;;;;;;;;5075776;28;20184;-73
2023/10/05 09:48:38;;;;;;;13.25;3.60;;;;;;;;;;5092536;28;20224;-75
2023/10/05 09:51:10;;;;;;;11.85;3.10;;;;;;;;;;5074936;28;20560;-74
2023/10/05 09:53:38;;;;;;;9.52;2.72;;;;;;;;;;5094176;28;20286;-75
2023/10/05 09:56:03;;;;;;;12.40;2.78;;;;;;;;;;5106435;28;20275;-75
2023/10/05 09:58:30;;;;;;;19.95;3.47;;;;;;;;;;5075817;28;20196;-75
2023/10/05 10:00:56;;;;;;;12.15;3.22;;;;;;;;;;5075140;28;20200;-75
2023/10/05 10:03:22;;;;;;;12.95;3.08;;;;;;;;;;5104259;28;20227;-74
2023/10/05 10:06:08;;;;;;;10.90;2.90;;;;;;;;;;5076402;28;20179;-74
2023/10/05 10:08:42;;;;;;;12.02;2.80;;;;;;;;;;5094105;28;20643;-76
2023/10/05 10:11:18;;;;;;;13.65;3.03;;;;;;;;;;5093957;28;20175;-73
2023/10/05 10:13:50;;;;;;;13.48;2.85;;;;;;;;;;5071499;28;20629;-74
2023/10/05 10:16:21;;;;;;;13.93;2.70;;;;;;;;;;5091373;28;20241;-75
2023/10/05 10:18:52;;;;;;;12.52;2.88;;;;;;;;;;5070616;28;20183;-75
2023/10/05 10:21:48;;;;;;;12.55;3.35;;;;;;;;;;5091790;28;20187;-76
2023/10/05 10:24:17;;;;;;;10.45;3.05;;;;;;;;;;5077707;28;20200;-75
2023/10/05 10:27:05;;;;;;;11.20;2.80;;;;;;;;;;5056904;28;20280;-74
2023/10/05 10:29:51;;;;;;;13.35;2.78;;;;;;;;;;5071083;28;20219;-74
2023/10/05 10:32:32;;;;;;;10.02;2.70;;;;;;;;;;5056885;28;20350;-74
2023/10/05 10:35:32;;;;;;;13.57;3.05;;;;;;;;;;5094200;28;20218;-75
2023/10/05 10:37:54;;;;;;;13.45;3.65;;;;;;;;;;5071149;28;20343;-75
2023/10/05 10:42:53;;;;;;;13.10;2.60;;;;;;;;;;5087232;28;20206;-70
2023/10/05 10:45:28;;;;;;;10.55;2.83;;;;;;;;;;5089111;28;20191;-74
2023/10/05 10:47:57;;;;;;;11.98;2.50;;;;;;;;;;5091934;28;20195;-72
2023/10/05 10:50:31;;;;;;;10.90;2.63;;;;;;;;;;5076919;28;20191;-74
2023/10/05 10:52:58;;;;;;;9.05;2.53;;;;;;;;;;5062160;28;20185;-70
2023/10/05 10:55:39;;;;;;;19.13;4.00;;;;;;;;;;5066650;28;20266;-72
2023/10/05 10:58:08;;;;;;;13.15;3.38;;;;;;;;;;5068057;28;20270;-73
2023/10/05 11:03:11;;;;;;;12.82;2.97;;;;;;;;;;5094150;28;20709;-75
2023/10/05 11:05:40;;;;;;;12.30;3.00;;;;;;;;;;5056145;28;20184;-75
2023/10/05 11:08:13;;;;;;;9.95;2.60;;;;;;;;;;5070345;28;20206;-75
2023/10/05 11:10:42;;;;;;;11.95;2.75;;;;;;;;;;5056128;28;20233;-75
2023/10/05 11:13:14;;;;;;;10.38;3.08;;;;;;;;;;5087486;28;20219;-72
2023/10/05 11:15:57;;;;;;;12.20;2.83;;;;;;;;;;5097768;28;20207;-72
2023/10/05 11:18:31;;;;;;;10.88;3.08;;;;;;;;;;5080915;28;20180;-72
2023/10/05 11:21:07;;;;;;;8.93;2.47;;;;;;;;;;5090537;28;20187;-74
2023/10/05 11:23:43;;;;;;;11.48;2.60;;;;;;;;;;5096662;28;20300;-71
2023/10/05 11:29:00;;;;;;;10.68;3.03;;;;;;;;;;5060857;28;20259;-75
2023/10/05 11:31:26;;;;;;;7.63;2.55;;;;;;;;;;5091752;28;20187;-74
2023/10/05 11:33:56;;;;;;;10.20;3.13;;;;;;;;;;5073931;28;20522;-74
2023/10/05 11:36:27;;;;;;;13.38;2.70;;;;;;;;;;5091130;28;20279;-74
2023/10/05 11:38:57;;;;;;;10.80;2.53;;;;;;;;;;5076746;28;20331;-76
2023/10/05 11:41:25;;;;;;;9.85;2.60;;;;;;;;;;5090825;28;20184;-72
2023/10/05 11:43:55;;;;;;;7.55;2.40;;;;;;;;;;5090790;28;20195;-75
2023/10/05 11:46:24;;;;;;;10.43;2.90;;;;;;;;;;5089785;28;20196;-74
2023/10/05 11:48:54;;;;;;;11.55;2.35;;;;;;;;;;5094256;28;20314;-74
2023/10/05 11:51:27;;;;;;;8.13;2.40;;;;;;;;;;5082834;28;20222;-74
2023/10/05 11:53:57;;;;;;;9.40;3.15;;;;;;;;;;5093482;28;20366;-73
2023/10/05 11:56:30;;;;;;;8.77;2.03;;;;;;;;;;5091691;28;20531;-75
2023/10/05 11:59:02;;;;;;;9.45;2.80;;;;;;;;;;5076427;28;20184;-72
2023/10/05 12:01:28;;;;;;;9.60;2.53;;;;;;;;;;5090148;28;20276;-73
2023/10/05 12:03:55;;;;;;;8.77;2.85;;;;;;;;;;5068868;28;20229;-72
2023/10/05 12:06:25;;;;;;;9.15;2.45;;;;;;;;;;5052205;28;20200;-74
2023/10/05 12:09:00;;;;;;;9.43;2.50;;;;;;;;;;5065522;28;20257;-75
2023/10/05 12:11:29;;;;;;;9.25;2.35;;;;;;;;;;5061509;28;20540;-75
2023/10/05 12:13:56;;;;;;;8.27;2.58;;;;;;;;;;5058130;28;20186;-75
2023/10/05 12:16:34;;;;;;;6.07;2.33;;;;;;;;;;5078767;28;20218;-73
2023/10/05 12:19:13;;;;;;;6.03;2.10;;;;;;;;;;5073868;28;20181;-73
2023/10/05 12:21:42;;;;;;;11.00;2.63;;;;;;;;;;5070551;28;20184;-74
2023/10/05 12:24:10;;;;;;;9.90;2.20;;;;;;;;;;5053550;28;20200;-72
2023/10/05 12:26:36;;;;;;;7.60;2.42;;;;;;;;;;5074997;28;20212;-76
2023/10/05 12:29:02;;;;;;;6.25;2.00;;;;;;;;;;5077766;28;20243;-74
2023/10/05 12:31:28;;;;;;;7.78;2.38;;;;;;;;;;5085705;28;20192;-72
2023/10/05 12:33:54;;;;;;;12.57;2.40;;;;;;;;;;5084706;28;20203;-74
2023/10/05 12:36:19;;;;;;;9.00;2.35;;;;;;;;;;5078911;28;20193;-74
2023/10/05 12:38:44;;;;;;;8.93;2.80;;;;;;;;;;5072455;28;20225;-72
2023/10/05 12:41:13;;;;;;;8.25;2.10;;;;;;;;;;5079998;28;20722;-73
2023/10/05 12:43:40;;;;;;;13.13;2.33;;;;;;;;;;5075543;28;20188;-74
2023/10/05 12:46:10;;;;;;;6.78;1.88;;;;;;;;;;5090057;28;20196;-73
2023/10/05 12:48:36;;;;;;;9.73;2.45;;;;;;;;;;5073013;28;20639;-72
2023/10/05 12:51:02;;;;;;;7.60;2.05;;;;;;;;;;5070145;28;20683;-74
2023/10/05 12:53:28;;;;;;;11.40;2.53;;;;;;;;;;5056476;28;20188;-74
2023/10/05 12:55:56;;;;;;;11.32;2.42;;;;;;;;;;5051361;28;20186;-71
2023/10/05 12:58:23;;;;;;;10.93;2.63;;;;;;;;;;5063490;28;20275;-76
2023/10/05 13:00:49;;;;;;;13.80;3.35;;;;;;;;;;5067935;28;20354;-72
2023/10/05 13:03:14;;;;;;;8.13;2.15;;;;;;;;;;5077927;28;20247;-74
2023/10/05 13:05:43;;;;;;;7.55;2.25;;;;;;;;;;5081773;28;20324;-73
2023/10/05 13:08:12;;;;;;;6.70;1.98;;;;;;;;;;5071374;28;20231;-75
2023/10/05 13:10:38;;;;;;;7.32;1.85;;;;;;;;;;5054294;28;20274;-73
2023/10/05 13:13:10;;;;;;;9.07;2.53;;;;;;;;;;5083228;28;20248;-75
2023/10/05 13:15:37;;;;;;;10.27;2.50;;;;;;;;;;5080761;28;20233;-73
2023/10/05 13:18:17;;;;;;;7.35;1.95;;;;;;;;;;5070994;28;20631;-73
2023/10/05 13:20:45;;;;;;;10.07;2.03;;;;;;;;;;5061939;28;20215;-74
2023/10/05 13:23:11;;;;;;;8.65;2.38;;;;;;;;;;5059520;28;20184;-76
2023/10/05 13:25:39;;;;;;;9.90;2.67;;;;;;;;;;5089766;28;20195;-74
2023/10/05 13:28:10;;;;;;;10.90;2.45;;;;;;;;;;5089095;28;20246;-75
2023/10/05 13:30:40;;;;;;;11.77;2.42;;;;;;;;;;5088912;28;20223;-71
2023/10/05 13:33:13;;;;;;;8.10;2.78;;;;;;;;;;5065492;28;20612;-71
2023/10/05 13:35:42;;;;;;;8.05;1.80;;;;;;;;;;5076789;28;20194;-73
2023/10/05 13:38:12;;;;;;;10.73;2.70;;;;;;;;;;5067653;28;20701;-73
2023/10/05 13:40:37;;;;;;;12.68;2.53;;;;;;;;;;5055785;28;20177;-73
2023/10/05 13:43:04;;;;;;;11.80;2.20;;;;;;;;;;5066704;28;20192;-74
2023/10/05 13:45:30;;;;;;;11.50;2.67;;;;;;;;;;5083214;28;20764;-75
2023/10/05 13:47:56;;;;;;;8.80;2.45;;;;;;;;;;5077726;28;20669;-73
2023/10/05 13:50:23;;;;;;;15.80;3.38;;;;;;;;;;5084975;28;20192;-74
2023/10/05 13:52:51;;;;;;;10.38;2.20;;;;;;;;;;5088937;28;20838;-74
2023/10/05 13:55:20;;;;;;;8.02;2.50;;;;;;;;;;5076609;28;20185;-75
2023/10/05 13:57:47;;;;;;;7.13;2.08;;;;;;;;;;5068477;28;20309;-74
2023/10/05 14:00:17;;;;;;;11.13;2.70;;;;;;;;;;5091790;28;20193;-75
2023/10/05 14:02:43;;;;;;;12.40;2.50;;;;;;;;;;5091011;28;20251;-73
2023/10/05 14:05:08;;;;;;;5.88;2.17;;;;;;;;;;5070109;28;20220;-72
2023/10/05 14:07:34;;;;;;;7.88;1.95;;;;;;;;;;5055209;28;20176;-73
2023/10/05 14:09:59;;;;;;;7.70;2.03;;;;;;;;;;5070472;28;20278;-75
2023/10/05 14:12:25;;;;;;;8.52;1.92;;;;;;;;;;5075906;28;20610;-74
2023/10/05 14:14:50;;;;;;;4.68;2.13;;;;;;;;;;5072322;28;20196;-75
2023/10/05 14:17:16;;;;;;;8.27;2.08;;;;;;;;;;5077513;28;20204;-73
2023/10/05 14:19:42;;;;;;;6.82;2.50;;;;;;;;;;5065533;28;20180;-75
2023/10/05 14:22:09;;;;;;;11.65;2.78;;;;;;;;;;5063951;28;20279;-73
2023/10/05 14:24:36;;;;;;;5.93;2.25;;;;;;;;;;5075862;28;20191;-75
2023/10/05 14:27:04;;;;;;;8.93;2.47;;;;;;;;;;5093702;28;20183;-74
2023/10/05 14:29:36;;;;;;;7.47;2.30;;;;;;;;;;5093855;28;20303;-72
2023/10/05 14:32:05;;;;;;;9.57;2.40;;;;;;;;;;5076935;28;20203;-74
2023/10/05 14:34:32;;;;;;;6.97;2.30;;;;;;;;;;5071623;28;20189;-74
2023/10/05 14:36:58;;;;;;;8.05;2.22;;;;;;;;;;5071940;28;20667;-73
2023/10/05 14:39:32;;;;;;;10.27;2.70;;;;;;;;;;5090925;28;20224;-75
2023/10/05 14:42:00;;;;;;;7.90;2.20;;;;;;;;;;5042423;28;20205;-69
2023/10/05 14:44:28;;;;;;;7.28;2.20;;;;;;;;;;5075502;28;20189;-73
2023/10/05 14:47:01;;;;;;;8.30;2.30;;;;;;;;;;5085920;28;20714;-74
2023/10/05 14:49:26;;;;;;;11.75;2.97;;;;;;;;;;5090746;28;20640;-74
2023/10/05 14:51:51;;;;;;;7.10;2.90;;;;;;;;;;5064050;28;20227;-74
2023/10/05 14:54:21;;;;;;;13.85;3.15;;;;;;;;;;5070332;28;20184;-74
2023/10/05 14:56:46;;;;;;;12.65;2.78;;;;;;;;;;5089243;28;20415;-73
2023/10/05 14:59:12;;;;;;;6.68;2.10;;;;;;;;;;5071166;28;20263;-74